Time;durP1;ratioP1;P1;durP2;ratioP2;P2;SDS_P1;SDS_P2;PMS_P1;PMS_P2;Temp;Humidity;BMP_temperature;BMP_pressure;BME280_temperature;BME280_humidity;BME280_pressure;Samples;Min_cycle;Max_cycle;Signal;HPM_P1;HPM_P2
2023/12/22 00:01:40;;;;;;;;;;;8.50;99.90;;;;;;5048789;28;19909;-84
2023/12/22 00:04:06;;;;;;;;;;;8.50;99.90;;;;;;5044485;28;19920;-84
2023/12/22 00:06:32;;;;;;;;;;;8.50;99.90;;;;;;5028928;28;19955;-83
2023/12/22 00:08:58;;;;;;;;;;;8.50;99.90;;;;;;5042459;28;19944;-86
2023/12/22 00:11:23;;;;;;;;;;;8.50;99.90;;;;;;5029964;28;19982;-87
2023/12/22 00:13:49;;;;;;;;;;;8.50;99.90;;;;;;5047332;28;19908;-89
2023/12/22 00:16:14;;;;;;;;;;;8.50;99.90;;;;;;5029584;28;19913;-86
2023/12/22 00:18:40;;;;;;;;;;;8.60;99.90;;;;;;5046349;28;19942;-90
2023/12/22 00:21:09;;;;;;;;;;;8.50;99.90;;;;;;5027720;28;19912;-83
2023/12/22 00:23:35;;;;;;;;;;;8.60;99.90;;;;;;5046368;28;20462;-85
2023/12/22 00:26:01;;;;;;;;;;;8.50;99.90;;;;;;5031437;28;20567;-86
2023/12/22 00:28:27;;;;;;;;;;;8.60;99.90;;;;;;5028249;28;19916;-87
2023/12/22 00:30:52;;;;;;;;;;;8.60;99.90;;;;;;5046147;28;19931;-87
2023/12/22 00:33:18;;;;;;;;;;;8.60;99.90;;;;;;5029267;28;19912;-87
2023/12/22 00:35:43;;;;;;;;;;;8.50;99.90;;;;;;5029672;28;20424;-88
2023/12/22 00:38:10;;;;;;;;;;;8.50;99.90;;;;;;5046397;28;19983;-86
2023/12/22 00:40:35;;;;;;;;;;;8.40;99.90;;;;;;5028043;28;19934;-85
2023/12/22 00:43:01;;;;;;;;;;;8.60;99.90;;;;;;5048207;28;19908;-84
2023/12/22 00:45:26;;;;;;;;;;;8.50;99.90;;;;;;5027782;28;19917;-86
2023/12/22 00:47:52;;;;;;;;;;;8.40;99.90;;;;;;5028288;28;19908;-86
2023/12/22 00:50:18;;;;;;;;;;;8.40;99.90;;;;;;5046738;28;19913;-85
2023/12/22 00:52:43;;;;;;;;;;;8.50;99.90;;;;;;5029874;28;19909;-86
2023/12/22 00:55:09;;;;;;;;;;;8.50;99.90;;;;;;5029060;28;20019;-85
2023/12/22 00:57:34;;;;;;;;;;;8.50;99.90;;;;;;5037139;28;20455;-85
2023/12/22 01:00:00;;;;;;;;;;;8.50;99.90;;;;;;5042702;28;19947;-85
2023/12/22 01:02:26;;;;;;;;;;;8.50;99.90;;;;;;5045058;28;20031;-86
2023/12/22 01:04:51;;;;;;;;;;;8.50;99.90;;;;;;5046684;28;19913;-85
2023/12/22 01:07:18;;;;;;;;;;;8.50;99.90;;;;;;5046647;28;19939;-85
2023/12/22 01:09:44;;;;;;;;;;;8.40;99.90;;;;;;5030755;28;19955;-86
2023/12/22 01:12:10;;;;;;;;;;;8.50;99.90;;;;;;5026583;28;19956;-86
2023/12/22 01:14:36;;;;;;;;;;;8.50;99.90;;;;;;5030680;28;19920;-86
2023/12/22 01:17:01;;;;;;;;;;;8.50;99.90;;;;;;5047063;28;19982;-85
2023/12/22 01:19:27;;;;;;;;;;;8.40;99.90;;;;;;5030725;28;19917;-85
2023/12/22 01:21:53;;;;;;;;;;;8.40;99.90;;;;;;5030237;28;19909;-85
2023/12/22 01:24:18;;;;;;;;;;;8.50;99.90;;;;;;5046426;28;19951;-85
2023/12/22 01:26:44;;;;;;;;;;;8.50;99.90;;;;;;5028941;28;19935;-85
2023/12/22 01:29:09;;;;;;;;;;;8.50;99.90;;;;;;5027253;28;19936;-83
2023/12/22 01:31:35;;;;;;;;;;;8.50;99.90;;;;;;5048757;28;20023;-83
2023/12/22 01:34:00;;;;;;;;;;;8.50;99.90;;;;;;5028165;28;19913;-83
2023/12/22 01:36:26;;;;;;;;;;;8.50;99.90;;;;;;5048404;28;19935;-84
2023/12/22 01:38:51;;;;;;;;;;;8.60;99.90;;;;;;5052139;28;20011;-84
2023/12/22 01:41:17;;;;;;;;;;;8.60;99.90;;;;;;5050718;28;19960;-83
2023/12/22 01:43:42;;;;;;;;;;;8.50;99.90;;;;;;5049581;28;19908;-83
2023/12/22 01:46:09;;;;;;;;;;;8.50;99.90;;;;;;5031325;28;19913;-83
2023/12/22 01:48:35;;;;;;;;;;;8.60;99.90;;;;;;5049717;28;19919;-84
2023/12/22 01:51:01;;;;;;;;;;;8.50;99.90;;;;;;5032442;28;19931;-83
2023/12/22 01:53:27;;;;;;;;;;;8.50;99.90;;;;;;5031314;28;20454;-83
2023/12/22 01:55:54;;;;;;;;;;;8.60;99.90;;;;;;5049198;28;20703;-82
2023/12/22 01:58:20;;;;;;;;;;;8.60;99.90;;;;;;5038625;28;19924;-84
2023/12/22 02:00:45;;;;;;;;;;;8.50;99.90;;;;;;5047804;28;19916;-85
2023/12/22 02:03:12;;;;;;;;;;;8.50;99.90;;;;;;5033231;28;19951;-84
2023/12/22 02:05:37;;;;;;;;;;;8.50;99.90;;;;;;5048823;28;20058;-85
2023/12/22 02:08:03;;;;;;;;;;;8.60;99.90;;;;;;5048996;28;19992;-84
2023/12/22 02:10:29;;;;;;;;;;;8.60;99.90;;;;;;5048523;28;19916;-84
2023/12/22 02:12:54;;;;;;;;;;;8.60;99.90;;;;;;5048498;28;19924;-83
2023/12/22 02:15:20;;;;;;;;;;;8.50;99.90;;;;;;5030973;28;19919;-84
2023/12/22 02:17:55;;;;;;;;;;;8.50;99.90;;;;;;5064143;28;19912;-84
2023/12/22 02:20:21;;;;;;;;;;;8.60;99.90;;;;;;5026826;28;19927;-84
2023/12/22 02:22:50;;;;;;;;;;;8.60;99.90;;;;;;5050296;28;19913;-84
2023/12/22 02:25:16;;;;;;;;;;;8.60;99.90;;;;;;5049029;28;20007;-85
2023/12/22 02:27:48;;;;;;;;;;;8.60;99.90;;;;;;5037913;28;19993;-86
2023/12/22 02:30:34;;;;;;;;;;;8.50;99.90;;;;;;5048493;28;19931;-85
2023/12/22 02:33:00;;;;;;;;;;;8.60;99.90;;;;;;5035825;28;19916;-84
2023/12/22 02:35:27;;;;;;;;;;;8.70;99.90;;;;;;5033265;28;19912;-85
2023/12/22 02:37:54;;;;;;;;;;;8.70;99.90;;;;;;5031771;28;19966;-84
2023/12/22 02:40:20;;;;;;;;;;;8.70;99.90;;;;;;5034634;28;19915;-85
2023/12/22 02:42:46;;;;;;;;;;;8.60;99.90;;;;;;5050180;28;19940;-85
2023/12/22 02:45:15;;;;;;;;;;;8.60;99.90;;;;;;5048235;28;20724;-82
2023/12/22 02:47:41;;;;;;;;;;;8.60;99.90;;;;;;5047950;28;20654;-83
2023/12/22 02:50:07;;;;;;;;;;;8.60;99.90;;;;;;5048026;28;20078;-82
2023/12/22 02:52:32;;;;;;;;;;;8.60;99.90;;;;;;5031054;28;19928;-82
2023/12/22 02:54:58;;;;;;;;;;;8.60;99.90;;;;;;5030188;28;19916;-81
2023/12/22 02:57:23;;;;;;;;;;;8.50;99.90;;;;;;5041758;28;19976;-81
2023/12/22 02:59:49;;;;;;;;;;;8.60;99.90;;;;;;5042683;28;20519;-82
2023/12/22 03:02:14;;;;;;;;;;;8.50;99.90;;;;;;5065340;28;20368;-82
2023/12/22 03:04:40;;;;;;;;;;;8.50;99.90;;;;;;5048038;28;20356;-81
2023/12/22 03:07:06;;;;;;;;;;;8.50;99.90;;;;;;5047671;28;19912;-81
2023/12/22 03:09:32;;;;;;;;;;;8.50;99.90;;;;;;5029875;28;19952;-81
2023/12/22 03:12:01;;;;;;;;;;;8.60;99.90;;;;;;5049330;28;19917;-81
2023/12/22 03:14:34;;;;;;;;;;;8.50;99.90;;;;;;5029978;28;19948;-80
2023/12/22 03:17:00;;;;;;;;;;;8.50;99.90;;;;;;5029844;28;19947;-82
2023/12/22 03:19:25;;;;;;;;;;;8.50;99.90;;;;;;5030790;28;19955;-83
2023/12/22 03:21:51;;;;;;;;;;;8.50;99.90;;;;;;5049181;28;19912;-83
2023/12/22 03:24:18;;;;;;;;;;;8.60;99.90;;;;;;5047654;28;19913;-83
2023/12/22 03:26:44;;;;;;;;;;;8.60;99.90;;;;;;5029105;28;19917;-83
2023/12/22 03:29:10;;;;;;;;;;;8.50;99.90;;;;;;5046188;28;19919;-84
2023/12/22 03:31:36;;;;;;;;;;;8.50;99.90;;;;;;5048192;28;19917;-84
2023/12/22 03:34:01;;;;;;;;;;;8.60;99.90;;;;;;5030416;28;19916;-85
2023/12/22 03:36:27;;;;;;;;;;;8.60;99.90;;;;;;5027920;28;20413;-84
2023/12/22 03:38:52;;;;;;;;;;;8.60;99.90;;;;;;5027941;28;20367;-82
2023/12/22 03:41:18;;;;;;;;;;;8.50;99.90;;;;;;5032588;28;20409;-83
2023/12/22 03:43:43;;;;;;;;;;;8.50;99.90;;;;;;5047681;28;20657;-83
2023/12/22 03:46:09;;;;;;;;;;;8.50;99.90;;;;;;5030248;28;20700;-83
2023/12/22 03:48:34;;;;;;;;;;;8.50;99.90;;;;;;5029977;28;20434;-82
2023/12/22 03:51:00;;;;;;;;;;;8.40;99.90;;;;;;5048243;28;20296;-85
2023/12/22 03:53:25;;;;;;;;;;;8.50;99.90;;;;;;5031296;28;19913;-85
2023/12/22 03:55:51;;;;;;;;;;;8.50;99.90;;;;;;5030491;28;19921;-83
2023/12/22 03:58:16;;;;;;;;;;;8.50;99.90;;;;;;5028509;28;19920;-84
2023/12/22 04:00:42;;;;;;;;;;;8.40;99.90;;;;;;5046676;28;19913;-84
2023/12/22 04:03:07;;;;;;;;;;;8.40;99.90;;;;;;5046902;28;19970;-84
2023/12/22 04:05:33;;;;;;;;;;;8.40;99.90;;;;;;5047324;28;19919;-84
2023/12/22 04:07:58;;;;;;;;;;;8.30;99.90;;;;;;5048152;28;19923;-82
2023/12/22 04:10:24;;;;;;;;;;;8.40;99.90;;;;;;5047467;28;19987;-84
2023/12/22 04:12:49;;;;;;;;;;;8.40;99.90;;;;;;5032433;28;19972;-84
2023/12/22 04:15:15;;;;;;;;;;;8.50;99.90;;;;;;5029105;28;19916;-85
2023/12/22 04:17:41;;;;;;;;;;;8.40;99.90;;;;;;5046677;28;19989;-84
2023/12/22 04:20:07;;;;;;;;;;;8.50;99.90;;;;;;5047279;28;19912;-84
2023/12/22 04:22:32;;;;;;;;;;;8.50;99.90;;;;;;5030185;28;19913;-83
2023/12/22 04:24:58;;;;;;;;;;;8.60;99.90;;;;;;5046300;28;19913;-82
2023/12/22 04:27:24;;;;;;;;;;;8.50;99.90;;;;;;5028104;28;19913;-82
2023/12/22 04:29:49;;;;;;;;;;;8.50;99.90;;;;;;5045849;28;20704;-82
2023/12/22 04:32:15;;;;;;;;;;;8.50;99.90;;;;;;5046435;28;19931;-83
2023/12/22 04:34:40;;;;;;;;;;;8.60;99.90;;;;;;5046484;28;19919;-83
2023/12/22 04:37:06;;;;;;;;;;;8.50;99.90;;;;;;5046498;28;19916;-83
2023/12/22 04:39:31;;;;;;;;;;;8.60;99.90;;;;;;5029009;28;20473;-82
2023/12/22 04:41:57;;;;;;;;;;;8.60;99.90;;;;;;5047095;28;19920;-83
2023/12/22 04:44:22;;;;;;;;;;;8.60;99.90;;;;;;5028458;28;19962;-83
2023/12/22 04:46:48;;;;;;;;;;;8.60;99.90;;;;;;5046104;28;19919;-83
2023/12/22 04:49:14;;;;;;;;;;;8.70;99.90;;;;;;5028830;28;19999;-84
2023/12/22 04:51:39;;;;;;;;;;;8.70;99.90;;;;;;5030205;28;19960;-83
2023/12/22 04:54:05;;;;;;;;;;;8.70;99.90;;;;;;5061588;28;19913;-83
2023/12/22 04:56:30;;;;;;;;;;;8.60;99.90;;;;;;5045631;28;19927;-83
2023/12/22 04:58:56;;;;;;;;;;;8.50;99.90;;;;;;5041192;28;19927;-83
2023/12/22 05:01:21;;;;;;;;;;;8.60;99.90;;;;;;5032165;28;20425;-83
2023/12/22 05:03:47;;;;;;;;;;;8.50;99.90;;;;;;5046122;28;20003;-84
2023/12/22 05:06:12;;;;;;;;;;;8.60;99.90;;;;;;5046293;28;19919;-84
2023/12/22 05:08:38;;;;;;;;;;;8.60;99.90;;;;;;5045679;28;19935;-84
2023/12/22 05:11:03;;;;;;;;;;;8.50;99.90;;;;;;5049925;28;19916;-84
2023/12/22 05:13:29;;;;;;;;;;;8.60;99.90;;;;;;5066264;28;19912;-84
2023/12/22 05:15:54;;;;;;;;;;;8.70;99.90;;;;;;5051076;28;19920;-84
2023/12/22 05:18:20;;;;;;;;;;;8.60;99.90;;;;;;5051120;28;19920;-85
2023/12/22 05:20:46;;;;;;;;;;;8.50;99.90;;;;;;5050629;28;19919;-83
2023/12/22 05:23:11;;;;;;;;;;;8.60;99.90;;;;;;5050941;28;19921;-83
2023/12/22 05:25:37;;;;;;;;;;;8.50;99.90;;;;;;5049928;28;20443;-83
2023/12/22 05:28:02;;;;;;;;;;;8.60;99.90;;;;;;5049418;28;19913;-82
2023/12/22 05:30:28;;;;;;;;;;;8.50;99.90;;;;;;5049657;28;19955;-84
2023/12/22 05:32:54;;;;;;;;;;;8.60;99.90;;;;;;5049375;28;20471;-84
2023/12/22 05:35:20;;;;;;;;;;;8.50;99.90;;;;;;5049932;28;20379;-83
2023/12/22 05:37:46;;;;;;;;;;;8.60;99.90;;;;;;5032540;28;20609;-83
2023/12/22 05:40:12;;;;;;;;;;;8.50;99.90;;;;;;5049766;28;20029;-84
2023/12/22 05:42:37;;;;;;;;;;;8.60;99.90;;;;;;5049402;28;19924;-84
2023/12/22 05:45:03;;;;;;;;;;;8.50;99.90;;;;;;5049538;28;19992;-87
2023/12/22 05:47:29;;;;;;;;;;;8.50;99.90;;;;;;5032184;28;19912;-90
2023/12/22 05:49:54;;;;;;;;;;;8.50;99.90;;;;;;5041894;28;19913;-90
2023/12/22 05:52:20;;;;;;;;;;;8.50;99.90;;;;;;5034326;28;19913;-85
2023/12/22 05:54:45;;;;;;;;;;;8.50;99.90;;;;;;5031881;28;19923;-91
2023/12/22 05:57:13;;;;;;;;;;;8.50;99.90;;;;;;5029284;28;19913;-86
2023/12/22 05:59:39;;;;;;;;;;;8.60;99.90;;;;;;5048039;28;20457;-87
2023/12/22 06:02:04;;;;;;;;;;;8.50;99.90;;;;;;5032347;28;19987;-87
2023/12/22 06:04:30;;;;;;;;;;;8.50;99.90;;;;;;5047908;28;19948;-86
2023/12/22 06:06:56;;;;;;;;;;;8.60;99.90;;;;;;5048203;28;19920;-87
2023/12/22 06:09:22;;;;;;;;;;;8.60;99.90;;;;;;5048421;28;19967;-86
2023/12/22 06:11:48;;;;;;;;;;;8.60;99.90;;;;;;5048787;28;19952;-87
2023/12/22 06:14:14;;;;;;;;;;;8.60;99.90;;;;;;5030975;28;19913;-87
2023/12/22 06:16:39;;;;;;;;;;;8.60;99.90;;;;;;5048912;28;19936;-88
2023/12/22 06:19:05;;;;;;;;;;;8.60;99.90;;;;;;5033050;28;19913;-87
2023/12/22 06:21:31;;;;;;;;;;;8.50;99.90;;;;;;5042348;28;19913;-89
2023/12/22 06:23:56;;;;;;;;;;;8.50;99.90;;;;;;5031781;28;20015;-90
2023/12/22 06:26:22;;;;;;;;;;;8.60;99.90;;;;;;5042872;28;20504;-89
2023/12/22 06:28:47;;;;;;;;;;;8.60;99.90;;;;;;5033029;28;19923;-90
2023/12/22 06:31:19;;;;;;;;;;;8.60;99.90;;;;;;5047266;28;19912;-91
2023/12/22 06:33:45;;;;;;;;;;;8.70;99.90;;;;;;5028376;28;19958;-87
2023/12/22 06:36:17;;;;;;;;;;;8.60;99.90;;;;;;5051559;28;19912;-87
2023/12/22 06:38:43;;;;;;;;;;;8.50;99.90;;;;;;5047589;28;19927;-90
2023/12/22 06:41:17;;;;;;;;;;;8.70;99.90;;;;;;5050582;28;20368;-87
2023/12/22 06:43:42;;;;;;;;;;;8.70;99.90;;;;;;5047720;28;20708;-86
2023/12/22 06:46:14;;;;;;;;;;;8.70;99.90;;;;;;5046572;28;20023;-86
2023/12/22 06:48:40;;;;;;;;;;;8.60;99.90;;;;;;5032748;28;20470;-90
2023/12/22 06:51:05;;;;;;;;;;;8.70;99.90;;;;;;5050292;28;20014;-87
2023/12/22 06:53:31;;;;;;;;;;;8.70;99.90;;;;;;5027952;28;19920;-87
2023/12/22 06:55:56;;;;;;;;;;;8.60;99.90;;;;;;5031264;28;19919;-88
2023/12/22 06:58:25;;;;;;;;;;;8.60;99.90;;;;;;5043943;28;19959;-87
2023/12/22 07:00:51;;;;;;;;;;;8.60;99.90;;;;;;5030363;28;19913;-87
2023/12/22 07:03:19;;;;;;;;;;;8.60;99.90;;;;;;5034439;28;20386;-87
2023/12/22 07:05:44;;;;;;;;;;;8.50;99.90;;;;;;5048150;28;19909;-87
2023/12/22 07:08:10;;;;;;;;;;;8.60;99.90;;;;;;5035038;28;20439;-86
2023/12/22 07:10:35;;;;;;;;;;;8.50;99.90;;;;;;5028720;28;19952;-86
2023/12/22 07:13:01;;;;;;;;;;;8.50;99.90;;;;;;5047221;28;19963;-88
2023/12/22 07:15:28;;;;;;;;;;;8.50;99.90;;;;;;5048045;28;19930;-87
2023/12/22 07:17:53;;;;;;;;;;;8.50;99.90;;;;;;5023046;28;19999;-87
2023/12/22 07:20:19;;;;;;;;;;;8.50;99.90;;;;;;5030255;28;19952;-88
2023/12/22 07:22:45;;;;;;;;;;;8.50;99.90;;;;;;5048868;28;19912;-89
2023/12/22 07:25:11;;;;;;;;;;;8.50;99.90;;;;;;5029977;28;19912;-84
2023/12/22 07:27:36;;;;;;;;;;;8.60;99.90;;;;;;5047546;28;19912;-84
2023/12/22 07:30:02;;;;;;;;;;;8.50;99.90;;;;;;5047233;28;19946;-88
2023/12/22 07:32:28;;;;;;;;;;;8.50;99.90;;;;;;5026505;28;20348;-87
2023/12/22 07:34:54;;;;;;;;;;;8.50;99.90;;;;;;5027142;28;19909;-86
2023/12/22 07:37:20;;;;;;;;;;;8.50;99.90;;;;;;5028524;28;19954;-86
2023/12/22 07:39:46;;;;;;;;;;;8.50;99.90;;;;;;5028303;28;19908;-87
2023/12/22 07:42:12;;;;;;;;;;;8.60;99.90;;;;;;5028215;28;19920;-88
2023/12/22 07:44:37;;;;;;;;;;;8.60;99.90;;;;;;5027586;28;19920;-87
2023/12/22 07:47:03;;;;;;;;;;;8.50;99.90;;;;;;5027959;28;19905;-88
2023/12/22 07:49:29;;;;;;;;;;;8.50;99.90;;;;;;5027142;28;19905;-88
2023/12/22 07:51:54;;;;;;;;;;;8.50;99.90;;;;;;5026444;28;19917;-87
2023/12/22 07:54:20;;;;;;;;;;;8.60;99.90;;;;;;5028387;28;19909;-88
2023/12/22 07:56:45;;;;;;;;;;;8.60;99.90;;;;;;5028845;28;20000;-89
2023/12/22 07:59:11;;;;;;;;;;;8.50;99.90;;;;;;5029323;28;19909;-89
2023/12/22 08:01:36;;;;;;;;;;;8.50;99.90;;;;;;5030089;28;19909;-89
2023/12/22 08:04:02;;;;;;;;;;;8.50;99.90;;;;;;5030527;28;20665;-89
2023/12/22 08:06:27;;;;;;;;;;;8.50;99.90;;;;;;5028490;28;19959;-88
2023/12/22 08:08:54;;;;;;;;;;;8.60;99.90;;;;;;5028171;28;20912;-87
2023/12/22 08:11:20;;;;;;;;;;;8.60;99.90;;;;;;5026735;28;19917;-88
2023/12/22 08:13:45;;;;;;;;;;;8.50;99.90;;;;;;5026685;28;20283;-88
2023/12/22 08:16:11;;;;;;;;;;;8.60;99.90;;;;;;5028256;28;19990;-88
2023/12/22 08:18:36;;;;;;;;;;;8.60;99.90;;;;;;5028350;28;19909;-88
2023/12/22 08:21:02;;;;;;;;;;;8.50;99.90;;;;;;5027587;28;19916;-88
2023/12/22 08:23:28;;;;;;;;;;;8.60;99.90;;;;;;5026517;28;19913;-87
2023/12/22 08:25:54;;;;;;;;;;;8.60;99.90;;;;;;5026505;28;19909;-87
2023/12/22 08:28:20;;;;;;;;;;;8.70;99.90;;;;;;5028095;28;20536;-87
2023/12/22 08:30:45;;;;;;;;;;;8.70;99.90;;;;;;5025762;28;19920;-88
2023/12/22 08:33:11;;;;;;;;;;;8.70;99.90;;;;;;5027728;28;19909;-88
2023/12/22 08:35:36;;;;;;;;;;;8.70;99.90;;;;;;5026594;28;19972;-88
2023/12/22 08:38:02;;;;;;;;;;;8.80;99.90;;;;;;5026709;28;19905;-88
2023/12/22 08:40:27;;;;;;;;;;;8.70;99.90;;;;;;5026231;28;19983;-88
2023/12/22 08:42:59;;;;;;;;;;;8.70;99.90;;;;;;5027937;28;20813;-88
2023/12/22 08:45:28;;;;;;;;;;;8.60;99.90;;;;;;5025732;28;19909;-88
2023/12/22 08:47:55;;;;;;;;;;;8.70;99.90;;;;;;5034943;28;19996;-89
2023/12/22 08:50:20;;;;;;;;;;;8.70;99.90;;;;;;5032835;28;19952;-88
2023/12/22 08:52:46;;;;;;;;;;;8.80;99.90;;;;;;5032870;28;19956;-88
2023/12/22 08:55:12;;;;;;;;;;;8.80;99.90;;;;;;5034730;28;19920;-89
2023/12/22 08:57:37;;;;;;;;;;;8.70;99.90;;;;;;5033826;28;20388;-89
2023/12/22 09:00:03;;;;;;;;;;;8.80;99.90;;;;;;5035357;28;19912;-89
2023/12/22 09:02:29;;;;;;;;;;;8.80;99.90;;;;;;5033432;28;19909;-89
2023/12/22 09:04:54;;;;;;;;;;;8.80;99.90;;;;;;5033585;28;19916;-88
2023/12/22 09:07:22;;;;;;;;;;;8.90;99.90;;;;;;5035058;28;19948;-89
2023/12/22 09:09:47;;;;;;;;;;;8.80;99.90;;;;;;5033490;28;20004;-89
2023/12/22 09:12:13;;;;;;;;;;;8.90;99.90;;;;;;5033039;28;19909;-88
2023/12/22 09:14:39;;;;;;;;;;;8.90;99.90;;;;;;5032183;28;19954;-89
2023/12/22 09:17:04;;;;;;;;;;;8.90;99.90;;;;;;5033582;28;19935;-88
2023/12/22 09:19:32;;;;;;;;;;;9.10;99.90;;;;;;5031780;28;19909;-87
2023/12/22 09:21:57;;;;;;;;;;;9.00;99.90;;;;;;5031250;28;19909;-87
2023/12/22 09:24:23;;;;;;;;;;;9.00;99.90;;;;;;5036305;28;20008;-88
2023/12/22 09:26:50;;;;;;;;;;;9.00;99.90;;;;;;5034287;28;19916;-88
2023/12/22 09:29:16;;;;;;;;;;;9.00;99.90;;;;;;5033021;28;20032;-88
2023/12/22 09:31:42;;;;;;;;;;;8.90;99.90;;;;;;5033232;28;19924;-88
2023/12/22 09:34:07;;;;;;;;;;;9.00;99.90;;;;;;5032790;28;19913;-88
2023/12/22 09:36:33;;;;;;;;;;;8.90;99.90;;;;;;5033107;28;19917;-88
2023/12/22 09:38:58;;;;;;;;;;;9.10;99.90;;;;;;5033623;28;19917;-89
2023/12/22 09:41:24;;;;;;;;;;;9.10;99.90;;;;;;5031749;28;19931;-88
2023/12/22 09:43:50;;;;;;;;;;;9.20;99.90;;;;;;5035028;28;20293;-88
2023/12/22 09:46:18;;;;;;;;;;;9.20;99.90;;;;;;5032938;28;19958;-89
2023/12/22 09:48:45;;;;;;;;;;;9.30;99.90;;;;;;5033313;28;19905;-90
2023/12/22 09:51:11;;;;;;;;;;;9.30;99.90;;;;;;5033734;28;19917;-89
2023/12/22 09:53:38;;;;;;;;;;;9.30;99.90;;;;;;5033750;28;19908;-88
2023/12/22 09:56:04;;;;;;;;;;;9.30;99.90;;;;;;5031160;28;19940;-88
2023/12/22 09:58:31;;;;;;;;;;;9.40;99.90;;;;;;5031645;28;19915;-88
2023/12/22 10:00:56;;;;;;;;;;;9.40;99.90;;;;;;5030822;28;19991;-88
2023/12/22 10:03:24;;;;;;;;;;;9.30;99.90;;;;;;5030079;28;19909;-88
2023/12/22 10:05:49;;;;;;;;;;;9.40;99.90;;;;;;5031618;28;19962;-89
2023/12/22 10:08:15;;;;;;;;;;;9.30;99.90;;;;;;5030727;28;19909;-88
2023/12/22 10:10:41;;;;;;;;;;;9.30;99.90;;;;;;5029587;28;19912;-89
2023/12/22 10:13:09;;;;;;;;;;;9.30;99.90;;;;;;5026758;28;20406;-90
2023/12/22 10:15:41;;;;;;;;;;;9.30;99.90;;;;;;5029980;28;19983;-89
2023/12/22 10:18:07;;;;;;;;;;;9.50;99.90;;;;;;5030955;28;19948;-88
2023/12/22 10:20:34;;;;;;;;;;;9.40;99.90;;;;;;5030510;28;19972;-88
2023/12/22 10:22:59;;;;;;;;;;;9.40;99.90;;;;;;5028833;28;19909;-90
2023/12/22 10:25:32;;;;;;;;;;;9.40;99.90;;;;;;5030345;28;19909;-88
2023/12/22 10:27:58;;;;;;;;;;;9.50;99.90;;;;;;5029118;28;19908;-88
2023/12/22 10:30:26;;;;;;;;;;;9.50;99.90;;;;;;5029710;28;19939;-89
2023/12/22 10:32:52;;;;;;;;;;;9.70;99.90;;;;;;5032461;28;19912;-88
2023/12/22 10:35:20;;;;;;;;;;;9.80;99.90;;;;;;5032644;28;19917;-88
2023/12/22 10:37:46;;;;;;;;;;;9.90;99.90;;;;;;5030095;28;19909;-88
2023/12/22 10:40:12;;;;;;;;;;;9.70;99.90;;;;;;5046352;28;19921;-86
2023/12/22 10:42:39;;;;;;;;;;;9.70;99.90;;;;;;5031328;28;19916;-86
2023/12/22 10:45:05;;;;;;;;;;;9.70;99.90;;;;;;5047783;28;19915;-88
2023/12/22 10:47:30;;;;;;;;;;;9.90;99.90;;;;;;5048888;28;20388;-93
2023/12/22 10:49:56;;;;;;;;;;;9.80;99.90;;;;;;5040343;28;19955;-89
2023/12/22 10:52:23;;;;;;;;;;;9.70;99.90;;;;;;5068232;28;19927;-87
2023/12/22 10:54:48;;;;;;;;;;;9.70;99.90;;;;;;5031382;28;19909;-88
2023/12/22 10:57:16;;;;;;;;;;;9.60;99.90;;;;;;5034852;28;19920;-90
2023/12/22 10:59:46;;;;;;;;;;;9.60;99.90;;;;;;5031547;28;19963;-89
2023/12/22 11:02:14;;;;;;;;;;;9.60;99.90;;;;;;5033700;28;20007;-88
2023/12/22 11:04:41;;;;;;;;;;;9.60;99.90;;;;;;5030643;28;20776;-89
2023/12/22 11:07:08;;;;;;;;;;;9.70;99.90;;;;;;5032277;28;19912;-88
2023/12/22 11:09:35;;;;;;;;;;;9.80;99.90;;;;;;5048602;28;19919;-89
2023/12/22 11:12:01;;;;;;;;;;;9.80;99.90;;;;;;5038766;28;19916;-84
2023/12/22 11:14:29;;;;;;;;;;;9.80;99.90;;;;;;5035053;28;19908;-85
2023/12/22 11:16:54;;;;;;;;;;;9.90;99.90;;;;;;5047778;28;19920;-87
2023/12/22 11:19:20;;;;;;;;;;;9.90;99.90;;;;;;5048476;28;20384;-87
2023/12/22 11:21:47;;;;;;;;;;;9.80;99.90;;;;;;5033055;28;19940;-91
2023/12/22 11:24:13;;;;;;;;;;;9.90;99.90;;;;;;5051500;28;19963;-87
2023/12/22 11:26:41;;;;;;;;;;;9.80;99.90;;;;;;5031457;28;20516;-87
2023/12/22 11:29:07;;;;;;;;;;;9.80;99.90;;;;;;5049325;28;20443;-88
2023/12/22 11:31:32;;;;;;;;;;;9.80;99.90;;;;;;5048479;28;19999;-86
2023/12/22 11:33:59;;;;;;;;;;;9.80;99.90;;;;;;5048142;28;19912;-85
2023/12/22 11:36:25;;;;;;;;;;;9.90;99.90;;;;;;5048039;28;19912;-86
2023/12/22 11:38:51;;;;;;;;;;;10.00;99.90;;;;;;5047288;28;20023;-87
2023/12/22 11:41:25;;;;;;;;;;;9.90;99.90;;;;;;5032736;28;20023;-88
2023/12/22 11:43:51;;;;;;;;;;;10.10;99.90;;;;;;5036932;28;19917;-86
2023/12/22 11:46:19;;;;;;;;;;;10.10;99.90;;;;;;5030821;28;19909;-85
2023/12/22 11:48:48;;;;;;;;;;;10.10;99.90;;;;;;5048299;28;20292;-90
2023/12/22 11:51:15;;;;;;;;;;;10.10;99.90;;;;;;5034296;28;19999;-88
2023/12/22 11:53:40;;;;;;;;;;;10.10;99.90;;;;;;5030509;28;19908;-88
2023/12/22 11:56:09;;;;;;;;;;;10.10;99.90;;;;;;5029514;28;20629;-89
2023/12/22 11:58:51;;;;;;;;;;;10.20;99.90;;;;;;5029578;28;19913;-88
2023/12/22 12:01:17;;;;;;;;;;;10.30;99.90;;;;;;5031366;28;20413;-89
2023/12/22 12:03:56;;;;;;;;;;;10.10;99.90;;;;;;5032438;28;19919;-90
2023/12/22 12:06:25;;;;;;;;;;;9.90;99.90;;;;;;5042694;28;19920;-85
2023/12/22 12:08:51;;;;;;;;;;;9.80;99.90;;;;;;5049162;28;19912;-88
2023/12/22 12:11:17;;;;;;;;;;;9.90;99.90;;;;;;5031592;28;19976;-86
2023/12/22 12:13:44;;;;;;;;;;;9.70;99.90;;;;;;5038356;28;20656;-85
2023/12/22 12:16:29;;;;;;;;;;;9.70;99.90;;;;;;5047259;28;19908;-84
2023/12/22 12:18:54;;;;;;;;;;;9.70;99.90;;;;;;5047251;28;19917;-88
2023/12/22 12:21:20;;;;;;;;;;;9.60;99.90;;;;;;5047858;28;20455;-89
2023/12/22 12:23:48;;;;;;;;;;;9.70;99.90;;;;;;5032786;28;20425;-90
2023/12/22 12:26:13;;;;;;;;;;;9.60;99.90;;;;;;5028787;28;19909;-80
2023/12/22 12:28:44;;;;;;;;;;;9.60;99.90;;;;;;5029341;28;19914;-80
2023/12/22 12:31:10;;;;;;;;;;;9.60;99.90;;;;;;5045598;28;19916;-80
2023/12/22 12:33:36;;;;;;;;;;;9.80;99.90;;;;;;5046918;28;19934;-80
2023/12/22 12:36:05;;;;;;;;;;;9.70;99.90;;;;;;5046478;28;19934;-81
2023/12/22 12:38:52;;;;;;;;;;;9.80;99.90;;;;;;5033097;28;19956;-82
2023/12/22 12:41:24;;;;;;;;;;;10.00;99.90;;;;;;5046026;28;19917;-81
2023/12/22 12:43:49;;;;;;;;;;;10.00;99.90;;;;;;5025545;28;19908;-81
2023/12/22 12:46:18;;;;;;;;;;;10.10;99.90;;;;;;5038412;28;19920;-84
2023/12/22 12:48:43;;;;;;;;;;;10.20;99.90;;;;;;5028182;28;19916;-83
2023/12/22 12:51:09;;;;;;;;;;;10.10;99.90;;;;;;5046097;28;19917;-84
2023/12/22 12:53:38;;;;;;;;;;;10.20;99.90;;;;;;5045397;28;20697;-93
2023/12/22 12:56:27;;;;;;;;;;;10.30;99.90;;;;;;5031865;28;19952;-92
2023/12/22 12:58:55;;;;;;;;;;;10.30;99.90;;;;;;5040025;28;19913;-91
2023/12/22 13:01:24;;;;;;;;;;;9.90;99.90;;;;;;5028238;28;19908;-90
2023/12/22 13:03:56;;;;;;;;;;;9.80;99.90;;;;;;5028610;28;19909;-90
2023/12/22 13:06:21;;;;;;;;;;;9.80;99.90;;;;;;5028398;28;19908;-88
2023/12/22 13:08:50;;;;;;;;;;;9.90;99.90;;;;;;5046725;28;19955;-89
2023/12/22 13:11:20;;;;;;;;;;;10.00;99.90;;;;;;5047041;28;19912;-88
2023/12/22 13:13:45;;;;;;;;;;;10.00;99.90;;;;;;5046871;28;20372;-89
2023/12/22 13:16:11;;;;;;;;;;;10.10;99.90;;;;;;5029179;28;20036;-88
2023/12/22 13:18:37;;;;;;;;;;;9.90;99.90;;;;;;5047346;28;20668;-87
2023/12/22 13:21:03;;;;;;;;;;;10.00;99.90;;;;;;5028517;28;19962;-89
2023/12/22 13:23:28;;;;;;;;;;;10.30;99.90;;;;;;5028879;28;19908;-89
2023/12/22 13:25:54;;;;;;;;;;;10.40;99.90;;;;;;5046767;28;19908;-89
2023/12/22 13:28:28;;;;;;;;;;;10.50;99.90;;;;;;5047462;28;20719;-89
2023/12/22 13:30:54;;;;;;;;;;;10.40;99.90;;;;;;5050447;28;19913;-89
2023/12/22 13:33:20;;;;;;;;;;;10.20;99.90;;;;;;5033933;28;19915;-89
2023/12/22 13:35:46;;;;;;;;;;;10.00;99.90;;;;;;5052135;28;19909;-89
2023/12/22 13:38:12;;;;;;;;;;;9.90;99.90;;;;;;5034450;28;20007;-90
2023/12/22 13:40:38;;;;;;;;;;;9.80;99.90;;;;;;5051444;28;19952;-90
2023/12/22 13:43:03;;;;;;;;;;;9.90;99.90;;;;;;5033799;28;20031;-89
2023/12/22 13:45:30;;;;;;;;;;;10.00;99.90;;;;;;5051431;28;19909;-89
2023/12/22 13:47:56;;;;;;;;;;;10.00;99.90;;;;;;5033311;28;19908;-89
2023/12/22 13:50:25;;;;;;;;;;;10.00;99.90;;;;;;5033113;28;19908;-90
2023/12/22 13:52:51;;;;;;;;;;;9.80;99.90;;;;;;5031805;28;19916;-89
2023/12/22 13:55:17;;;;;;;;;;;9.70;99.90;;;;;;5033798;28;19908;-89
2023/12/22 13:57:44;;;;;;;;;;;9.80;99.90;;;;;;5033046;28;20670;-89
2023/12/22 14:00:18;;;;;;;;;;;9.70;99.90;;;;;;5050537;28;19909;-90
2023/12/22 14:02:44;;;;;;;;;;;9.80;99.90;;;;;;5032700;28;19924;-88
2023/12/22 14:05:09;;;;;;;;;;;9.80;99.90;;;;;;5050625;28;19908;-89
2023/12/22 14:07:35;;;;;;;;;;;9.90;99.90;;;;;;5030289;28;19967;-89
2023/12/22 14:10:07;;;;;;;;;;;9.90;99.90;;;;;;5049891;28;19905;-90
2023/12/22 14:12:33;;;;;;;;;;;10.00;99.90;;;;;;5049799;28;20003;-89
2023/12/22 14:14:58;;;;;;;;;;;9.80;99.90;;;;;;5049541;28;20102;-89
2023/12/22 14:17:24;;;;;;;;;;;9.80;99.90;;;;;;5033656;28;19955;-88
2023/12/22 14:19:49;;;;;;;;;;;9.70;99.90;;;;;;5049756;28;19920;-89
2023/12/22 14:22:15;;;;;;;;;;;9.70;99.90;;;;;;5032495;28;19972;-90
2023/12/22 14:24:41;;;;;;;;;;;9.50;99.90;;;;;;5052492;28;19987;-88